Aviation Digital Data Service (ADDS)

Output produced by METARs form (2110 UTC 27 May 2017)
found at http://aviationweather.gov/adds/metars/
 
KPGV 271721Z 2718/2818 22005KT P6SM SKC 
     FM280100 21006KT P6SM VCTS BKN040CB 
     FM280800 28005KT P6SM BKN080 
     FM281500 VRB04KT P6SM SCT250 AMD LTD TO CLD VIS AND WIND